CYQB

Quebec / Jean Lesage International Airport

Quebec, , Canada
METAR CYQB 240100Z 03006KT 15SM FEW170 08/02 A3000 RMK AC2 SLP163
Observed Flight Rules
May-24 @ 01:00 UTC (an hour ago) Visual Flight Rules
Wind Visibility Clouds
30° at 6 knots 15 miles
  • Few at 17,000' AGL
Temperatures Readings
Current 8°C / 46°F
Dewpoint 2°C / 36°F
Humidity 66%
Altimeter 30" Hg
Pressure 1016.3 hPa
Elevation 73
METAR CYQB 240100Z 03006KT 15SM FEW170 08/02 A3000 RMK AC2 SLP163
Observed Flight Rules
May-24 @ 01:00 UTC
(an hour ago)
VFR
Wind Visibility
30° at 6 knots 15 miles
Clouds
  • Few at 17,000' AGL
Temperature Dewpoint
8°C / 46°F 2°C / 36°F
Humidity Altimeter Pressure
66% 30" Hg 1016.3 hPa